createdAt,value
2022-08-04T00:01:06.198Z,5.97
2022-08-04T00:03:43.938Z,12.45
2022-08-04T00:06:19.441Z,9.63
2022-08-04T00:08:53.087Z,6.45
2022-08-04T00:11:27.030Z,2.92
2022-08-04T00:14:03.836Z,4.97
2022-08-04T00:16:38.339Z,8.80
2022-08-04T00:19:12.696Z,4.93
2022-08-04T00:21:47.861Z,5.10
2022-08-04T00:24:17.993Z,6.63
2022-08-04T00:26:47.545Z,14.85
2022-08-04T00:29:17.817Z,10.60
2022-08-04T00:31:56.474Z,3.58
2022-08-04T00:34:29.334Z,10.02
2022-08-04T00:36:59.127Z,3.67
2022-08-04T00:39:28.555Z,6.28
2022-08-04T00:42:34.454Z,4.03
2022-08-04T00:45:22.914Z,4.40
2022-08-04T00:48:08.630Z,5.82
2022-08-04T00:50:46.742Z,5.07
2022-08-04T00:53:26.274Z,4.78
2022-08-04T00:56:27.684Z,5.32
2022-08-04T00:59:04.779Z,12.73
2022-08-04T01:01:56.542Z,4.95
2022-08-04T01:04:39.934Z,6.15
2022-08-04T01:07:28.498Z,7.18
2022-08-04T01:10:04.978Z,9.95
2022-08-04T01:12:59.258Z,10.70
2022-08-04T01:15:59.467Z,5.38
2022-08-04T01:18:37.313Z,4.55
2022-08-04T01:21:32.705Z,6.20
2022-08-04T01:24:20.912Z,9.30
2022-08-04T01:26:58.778Z,9.40
2022-08-04T01:29:44.014Z,5.40
2022-08-04T01:32:25.508Z,5.30
2022-08-04T01:35:03.667Z,5.05
2022-08-04T01:37:50.693Z,5.43
2022-08-04T01:40:20.342Z,4.60
2022-08-04T01:42:53.630Z,7.38
2022-08-04T01:45:26.292Z,5.40
2022-08-04T01:47:56.608Z,8.65
2022-08-04T01:50:28.058Z,6.32
2022-08-04T01:52:57.710Z,5.15
2022-08-04T01:55:54.407Z,3.83
2022-08-04T01:58:20.964Z,7.60
2022-08-04T02:00:58.261Z,8.40
2022-08-04T02:04:21.788Z,6.70
2022-08-04T02:06:33.225Z,5.75
2022-08-04T02:09:12.308Z,5.20
2022-08-04T02:11:43.861Z,10.93
2022-08-04T02:14:36.885Z,6.43
2022-08-04T02:17:12.746Z,6.80
2022-08-04T02:20:02.408Z,8.80
2022-08-04T02:22:34.197Z,4.07
2022-08-04T02:25:08.080Z,7.55
2022-08-04T02:28:00.407Z,8.27
2022-08-04T02:30:44.800Z,10.60
2022-08-04T02:33:19.999Z,7.70
2022-08-04T02:35:54.712Z,5.80
2022-08-04T02:38:28.970Z,8.65
2022-08-04T02:41:01.863Z,5.72
2022-08-04T02:43:51.589Z,5.80
2022-08-04T02:46:22.658Z,5.47
2022-08-04T02:48:54.952Z,6.97
2022-08-04T02:51:26.688Z,6.45
2022-08-04T02:53:58.137Z,6.25
2022-08-04T02:56:29.367Z,5.45
2022-08-04T02:59:01.478Z,9.27
2022-08-04T03:01:31.271Z,10.10
2022-08-04T03:04:35.198Z,5.22
2022-08-04T03:07:50.646Z,7.82
2022-08-04T03:10:39.481Z,11.07
2022-08-04T03:13:41.016Z,5.38
2022-08-04T03:16:48.815Z,5.85
2022-08-04T03:19:54.839Z,7.78
2022-08-04T03:23:14.422Z,7.63
2022-08-04T03:26:07.401Z,7.15
2022-08-04T03:29:35.160Z,8.10
2022-08-04T03:32:44.407Z,6.13
2022-08-04T03:35:44.575Z,8.85
2022-08-04T03:38:35.442Z,10.63
2022-08-04T03:41:55.069Z,8.63
2022-08-04T03:44:50.577Z,7.00
2022-08-04T03:47:55.819Z,5.68
2022-08-04T03:51:35.620Z,4.55
2022-08-04T03:54:23.994Z,9.70
2022-08-04T03:57:20.106Z,11.25
2022-08-04T04:00:09.036Z,6.25
2022-08-04T04:03:07.455Z,6.28
2022-08-04T04:06:15.748Z,11.77
2022-08-04T04:09:20.815Z,8.38
2022-08-04T04:12:18.388Z,7.28
2022-08-04T04:15:12.329Z,9.93
2022-08-04T04:18:17.175Z,6.15
2022-08-04T04:20:59.198Z,8.82
2022-08-04T04:23:48.944Z,9.23
2022-08-04T04:26:41.503Z,10.13
2022-08-04T04:29:30.659Z,5.80
2022-08-04T04:32:08.165Z,8.88
2022-08-04T04:34:47.249Z,12.93
2022-08-04T04:37:31.173Z,12.48
2022-08-04T04:40:14.868Z,16.48
2022-08-04T04:43:20.332Z,9.27
2022-08-04T04:45:56.638Z,9.85
2022-08-04T04:48:37.658Z,9.27
2022-08-04T04:51:14.893Z,12.98
2022-08-04T04:54:00.021Z,8.43
2022-08-04T04:56:36.019Z,15.13
2022-08-04T04:59:09.199Z,8.48
2022-08-04T05:02:13.476Z,17.05
2022-08-04T05:05:08.002Z,10.23
2022-08-04T05:08:42.712Z,9.48
2022-08-04T05:11:30.320Z,13.98
2022-08-04T05:14:39.067Z,11.13
2022-08-04T05:17:01.231Z,11.27
2022-08-04T05:19:39.998Z,14.55
2022-08-04T05:22:14.779Z,7.35
2022-08-04T05:24:47.280Z,8.00
2022-08-04T05:27:22.052Z,7.40
2022-08-04T05:29:56.337Z,12.95
2022-08-04T05:32:29.446Z,11.27
2022-08-04T05:35:04.384Z,10.60
2022-08-04T05:37:35.496Z,23.15
2022-08-04T05:40:07.415Z,9.85
2022-08-04T05:42:40.919Z,17.17
2022-08-04T05:45:11.256Z,13.90
2022-08-04T05:47:40.398Z,11.10
2022-08-04T05:50:10.297Z,15.27
2022-08-04T05:52:40.154Z,8.05
2022-08-04T05:55:12.743Z,7.72
2022-08-04T05:57:54.078Z,25.90
2022-08-04T06:00:40.724Z,10.57
2022-08-04T06:03:11.754Z,10.68
2022-08-04T06:05:41.918Z,10.85
2022-08-04T06:08:13.465Z,12.85
2022-08-04T06:10:45.900Z,10.50
2022-08-04T06:13:47.525Z,16.13
2022-08-04T06:16:17.794Z,11.23
2022-08-04T06:20:00.959Z,12.10
2022-08-04T06:21:41.698Z,17.33
2022-08-04T06:24:13.236Z,10.27
2022-08-04T06:26:42.282Z,15.07
2022-08-04T06:29:20.717Z,22.88
2022-08-04T06:32:30.162Z,11.80
2022-08-04T06:34:48.845Z,14.05
2022-08-04T06:37:41.508Z,17.70
2022-08-04T06:40:29.550Z,8.27
2022-08-04T06:43:00.856Z,17.73
2022-08-04T06:45:32.025Z,12.15
2022-08-04T06:48:02.907Z,10.98
2022-08-04T06:51:30.241Z,16.98
2022-08-04T06:53:21.568Z,12.65
2022-08-04T06:55:51.626Z,10.65
2022-08-04T06:58:22.309Z,11.90
2022-08-04T07:00:53.102Z,11.57
2022-08-04T07:03:22.111Z,8.63
2022-08-04T07:05:52.440Z,13.18
2022-08-04T07:08:22.068Z,20.48
2022-08-04T07:10:53.310Z,19.08
2022-08-04T07:13:23.491Z,7.80
2022-08-04T07:15:56.337Z,18.55
2022-08-04T07:18:25.199Z,7.40
2022-08-04T07:20:54.726Z,15.80
2022-08-04T07:23:25.821Z,9.13
2022-08-04T07:25:59.652Z,17.08
2022-08-04T07:28:41.687Z,25.27
2022-08-04T07:31:33.785Z,20.90
2022-08-04T07:34:16.575Z,25.77
2022-08-04T07:36:52.908Z,27.67
2022-08-04T07:39:27.200Z,11.73
2022-08-04T07:41:57.283Z,10.68
2022-08-04T07:44:26.415Z,15.10
2022-08-04T07:46:56.738Z,9.02
2022-08-04T07:49:54.895Z,6.95
2022-08-04T07:52:15.564Z,11.02
2022-08-04T07:54:45.057Z,11.77
2022-08-04T07:57:19.247Z,8.98
2022-08-04T07:59:52.418Z,3.78
2022-08-04T08:02:23.644Z,9.27
2022-08-04T08:04:52.556Z,8.68
2022-08-04T08:07:21.668Z,8.73
2022-08-04T08:09:50.862Z,13.82
2022-08-04T08:12:37.485Z,8.52
2022-08-04T08:15:11.194Z,13.45
2022-08-04T08:17:59.964Z,4.57
2022-08-04T08:20:31.544Z,3.67
2022-08-04T08:23:00.910Z,5.97
2022-08-04T08:25:32.383Z,9.13
2022-08-04T08:28:01.390Z,4.05
2022-08-04T08:30:31.809Z,6.45
2022-08-04T08:33:05.662Z,4.32
2022-08-04T08:35:53.075Z,3.58
2022-08-04T08:38:50.697Z,2.88
2022-08-04T08:41:57.775Z,3.20
2022-08-04T08:44:58.175Z,5.63
2022-08-04T08:48:05.145Z,4.35
2022-08-04T08:50:55.576Z,6.10
2022-08-04T08:53:40.257Z,2.97
2022-08-04T08:56:31.152Z,3.10
2022-08-04T08:59:26.091Z,3.72
2022-08-04T09:02:11.859Z,3.85
2022-08-04T09:05:04.014Z,4.60
2022-08-04T09:07:53.061Z,3.28
2022-08-04T09:10:27.845Z,1.90
2022-08-04T09:13:07.478Z,3.88
2022-08-04T09:15:40.914Z,1.80
2022-08-04T09:18:19.693Z,3.25
2022-08-04T09:20:53.361Z,5.28
2022-08-04T09:23:35.172Z,2.22
2022-08-04T09:26:10.359Z,2.88
2022-08-04T09:28:54.136Z,4.47
2022-08-04T09:31:51.736Z,3.22
2022-08-04T09:34:29.060Z,2.20
2022-08-04T09:37:06.595Z,2.88
2022-08-04T09:39:51.869Z,1.85
2022-08-04T09:42:30.467Z,2.50
2022-08-04T09:45:06.898Z,4.80
2022-08-04T09:47:41.360Z,3.00
2022-08-04T09:50:24.530Z,3.08
2022-08-04T09:53:04.367Z,2.00
2022-08-04T09:55:53.630Z,3.72
2022-08-04T09:58:41.833Z,2.50
2022-08-04T10:01:14.472Z,2.17
2022-08-04T10:03:46.927Z,3.17
2022-08-04T10:06:37.052Z,2.05
2022-08-04T10:09:19.356Z,3.80
2022-08-04T10:12:01.851Z,2.75
2022-08-04T10:14:40.132Z,4.00
2022-08-04T10:17:22.376Z,3.28
2022-08-04T10:19:59.614Z,2.38
2022-08-04T10:22:55.487Z,2.45
2022-08-04T10:26:05.896Z,3.60
2022-08-04T10:28:32.901Z,4.22
2022-08-04T10:31:08.305Z,4.38
2022-08-04T10:33:46.269Z,9.05
2022-08-04T10:36:20.076Z,2.58
2022-08-04T10:39:12.033Z,2.47
2022-08-04T10:41:49.926Z,3.88
2022-08-04T10:44:29.673Z,3.05
2022-08-04T10:47:17.769Z,2.60
2022-08-04T10:49:47.902Z,2.40
2022-08-04T10:52:24.146Z,2.90
2022-08-04T10:54:59.023Z,5.03
2022-08-04T10:57:38.131Z,3.53
2022-08-04T11:00:12.348Z,3.88
2022-08-04T11:02:48.172Z,3.53
2022-08-04T11:05:23.594Z,5.53
2022-08-04T11:07:54.443Z,4.55
2022-08-04T11:10:26.630Z,5.40
2022-08-04T11:13:01.943Z,2.90
2022-08-04T11:15:38.769Z,2.88
2022-08-04T11:18:16.785Z,5.70
2022-08-04T11:20:54.207Z,3.50
2022-08-04T11:23:28.332Z,5.80
2022-08-04T11:26:04.330Z,4.82
2022-08-04T11:28:43.925Z,2.58
2022-08-04T11:31:20.971Z,2.50
2022-08-04T11:33:57.065Z,4.22
2022-08-04T11:36:40.872Z,3.38
2022-08-04T11:39:15.339Z,3.38
2022-08-04T11:41:52.912Z,3.20
2022-08-04T11:44:30.159Z,4.05
2022-08-04T11:47:03.753Z,4.00
2022-08-04T11:49:57.425Z,2.60
2022-08-04T11:52:30.014Z,6.10
2022-08-04T11:55:00.689Z,7.30
2022-08-04T11:57:36.359Z,3.85
2022-08-04T12:00:10.204Z,3.00
2022-08-04T12:03:20.766Z,5.50
2022-08-04T12:05:58.851Z,3.05
2022-08-04T12:08:51.143Z,5.13
2022-08-04T12:11:29.772Z,3.75
2022-08-04T12:14:08.260Z,4.53
2022-08-04T12:16:43.510Z,4.38
2022-08-04T12:19:22.800Z,5.13
2022-08-04T12:21:56.773Z,4.10
2022-08-04T12:24:32.695Z,5.60
2022-08-04T12:27:18.247Z,6.70
2022-08-04T12:30:54.033Z,5.50
2022-08-04T12:32:48.218Z,2.90
2022-08-04T12:35:28.839Z,2.65
2022-08-04T12:38:03.015Z,3.65
2022-08-04T12:40:46.224Z,4.05
2022-08-04T12:43:20.613Z,3.75
2022-08-04T12:45:53.001Z,4.18
2022-08-04T12:48:22.746Z,5.25
2022-08-04T12:50:55.532Z,5.43
2022-08-04T12:53:32.168Z,3.53
2022-08-04T12:56:02.738Z,3.70
2022-08-04T12:58:42.086Z,8.15
2022-08-04T13:02:07.220Z,3.13
2022-08-04T13:04:12.880Z,4.75
2022-08-04T13:06:44.641Z,9.05
2022-08-04T13:09:19.291Z,3.17
2022-08-04T13:11:54.049Z,3.13
2022-08-04T13:14:27.800Z,4.32
2022-08-04T13:17:01.271Z,5.63
2022-08-04T13:19:31.884Z,7.68
2022-08-04T13:22:12.079Z,5.13
2022-08-04T13:25:18.281Z,4.32
2022-08-04T13:27:43.136Z,3.78
2022-08-04T13:30:18.577Z,3.83
2022-08-04T13:32:57.261Z,4.45
2022-08-04T13:35:55.237Z,8.45
2022-08-04T13:38:19.724Z,5.00
2022-08-04T13:40:49.622Z,5.13
2022-08-04T13:44:16.978Z,4.65
2022-08-04T13:46:27.129Z,5.97
2022-08-04T13:49:25.863Z,4.55
2022-08-04T13:51:57.997Z,15.30
2022-08-04T13:54:42.506Z,4.40
2022-08-04T13:57:16.324Z,3.67
2022-08-04T13:59:52.955Z,5.03
2022-08-04T14:02:33.165Z,3.80
2022-08-04T14:05:18.810Z,4.72
2022-08-04T14:07:51.048Z,3.47
2022-08-04T14:10:22.163Z,3.05
2022-08-04T14:12:52.253Z,2.60
2022-08-04T14:16:01.344Z,6.90
2022-08-04T14:18:32.104Z,5.07
2022-08-04T14:21:06.850Z,5.25
2022-08-04T14:23:47.218Z,4.38
2022-08-04T14:26:21.095Z,4.55
2022-08-04T14:29:26.175Z,3.55
2022-08-04T14:32:06.047Z,4.85
2022-08-04T14:34:51.551Z,3.70
2022-08-04T14:37:22.706Z,3.33
2022-08-04T14:40:08.919Z,3.45
2022-08-04T14:42:54.995Z,2.97
2022-08-04T14:45:35.838Z,4.75
2022-08-04T14:48:08.968Z,5.35
2022-08-04T14:50:40.107Z,3.05
2022-08-04T14:53:10.975Z,4.15
2022-08-04T14:55:43.576Z,4.40
2022-08-04T14:58:37.962Z,3.47
2022-08-04T15:01:11.700Z,4.68
2022-08-04T15:03:50.205Z,5.03
2022-08-04T15:06:23.493Z,3.67
2022-08-04T15:08:52.930Z,4.25
2022-08-04T15:11:24.269Z,3.38
2022-08-04T15:13:56.122Z,4.40
2022-08-04T15:16:26.248Z,3.83
2022-08-04T15:18:56.815Z,4.10
2022-08-04T15:21:28.326Z,7.20
2022-08-04T15:23:57.969Z,4.43
2022-08-04T15:26:35.081Z,3.80
2022-08-04T15:29:16.243Z,3.58
2022-08-04T15:32:05.668Z,4.38
2022-08-04T15:34:51.160Z,3.05
2022-08-04T15:37:27.491Z,4.07
2022-08-04T15:40:00.493Z,3.55
2022-08-04T15:42:36.974Z,3.13
2022-08-04T15:45:21.870Z,2.65
2022-08-04T15:48:29.101Z,4.00
2022-08-04T15:51:14.398Z,4.85
2022-08-04T15:54:24.462Z,5.75
2022-08-04T15:57:02.634Z,12.30
2022-08-04T16:00:03.776Z,4.15
2022-08-04T16:02:51.761Z,7.63
2022-08-04T16:05:40.287Z,6.47
2022-08-04T16:08:16.796Z,6.05
2022-08-04T16:10:50.763Z,3.35
2022-08-04T16:13:21.421Z,5.95
2022-08-04T16:15:54.807Z,4.40
2022-08-04T16:18:40.530Z,5.50
2022-08-04T16:21:19.935Z,4.18
2022-08-04T16:24:22.586Z,4.60
2022-08-04T16:26:56.446Z,4.25
2022-08-04T16:29:40.190Z,6.82
2022-08-04T16:32:10.753Z,4.53
2022-08-04T16:34:48.871Z,4.10
2022-08-04T16:37:20.364Z,5.75
2022-08-04T16:39:50.462Z,3.58
2022-08-04T16:42:36.627Z,4.05
2022-08-04T16:45:13.216Z,6.40
2022-08-04T16:48:07.650Z,4.47
2022-08-04T16:50:57.598Z,5.10
2022-08-04T16:54:03.690Z,5.03
2022-08-04T16:56:33.746Z,3.35
2022-08-04T16:59:09.533Z,5.93
2022-08-04T17:01:39.014Z,4.15
2022-08-04T17:04:08.297Z,5.10
2022-08-04T17:06:40.416Z,3.97
2022-08-04T17:09:13.637Z,4.72
2022-08-04T17:11:43.133Z,9.23
2022-08-04T17:14:12.431Z,7.28
2022-08-04T17:16:43.549Z,5.88
2022-08-04T17:19:25.052Z,5.88
2022-08-04T17:22:04.978Z,3.38
2022-08-04T17:24:35.623Z,3.60
2022-08-04T17:28:18.947Z,16.48
2022-08-04T17:29:53.905Z,5.82
2022-08-04T17:32:24.177Z,5.63
2022-08-04T17:34:55.164Z,5.63
2022-08-04T17:37:39.235Z,6.85
2022-08-04T17:40:22.599Z,3.45
2022-08-04T17:44:05.193Z,5.25
2022-08-04T17:46:29.643Z,6.75
2022-08-04T17:49:06.092Z,14.15
2022-08-04T17:52:06.482Z,4.22
2022-08-04T17:54:36.787Z,6.18
2022-08-04T17:57:19.381Z,7.30
2022-08-04T17:59:57.970Z,6.32
2022-08-04T18:02:32.361Z,8.75
2022-08-04T18:05:07.564Z,5.10
2022-08-04T18:08:42.984Z,4.70
2022-08-04T18:10:52.508Z,7.80
2022-08-04T18:13:25.741Z,8.27
2022-08-04T18:16:03.164Z,5.40
2022-08-04T18:18:31.999Z,5.57
2022-08-04T18:21:03.509Z,4.63
2022-08-04T18:23:33.762Z,7.88
2022-08-04T18:26:04.116Z,4.95
2022-08-04T18:28:33.154Z,7.22
2022-08-04T18:31:02.350Z,7.22
2022-08-04T18:33:40.807Z,5.30
2022-08-04T18:36:34.199Z,6.75
2022-08-04T18:42:04.090Z,7.88
2022-08-04T18:44:52.017Z,6.32
2022-08-04T18:47:23.239Z,4.72
2022-08-04T18:50:59.084Z,6.72
2022-08-04T18:52:45.398Z,6.47
2022-08-04T18:55:57.206Z,6.18
2022-08-04T18:58:11.610Z,7.00
2022-08-04T19:00:45.809Z,6.45
2022-08-04T19:03:16.455Z,7.50
2022-08-04T19:05:52.417Z,6.53
2022-08-04T19:08:34.259Z,7.03
2022-08-04T19:11:37.447Z,5.22
2022-08-04T19:13:58.024Z,5.53
2022-08-04T19:16:28.786Z,6.70
2022-08-04T19:18:57.931Z,8.00
2022-08-04T19:21:59.197Z,10.38
2022-08-04T19:24:32.517Z,4.75
2022-08-04T19:27:06.827Z,16.55
2022-08-04T19:29:42.861Z,7.20
2022-08-04T19:32:15.791Z,6.00
2022-08-04T19:34:47.421Z,9.55
2022-08-04T19:37:58.416Z,6.43
2022-08-04T19:40:08.170Z,7.13
2022-08-04T19:42:38.849Z,5.65
2022-08-04T19:45:15.360Z,7.88
2022-08-04T19:48:12.332Z,6.85
2022-08-04T19:50:34.476Z,7.13
2022-08-04T19:53:04.238Z,10.30
2022-08-04T19:55:49.885Z,7.78
2022-08-04T19:58:21.577Z,9.55
2022-08-04T20:00:56.853Z,6.68
2022-08-04T20:04:09.776Z,7.03
2022-08-04T20:06:14.915Z,7.88
2022-08-04T20:08:48.138Z,8.40
2022-08-04T20:14:07.093Z,12.38
2022-08-04T20:16:38.666Z,5.47
2022-08-04T20:19:10.609Z,7.88
2022-08-04T20:21:55.219Z,6.07
2022-08-04T20:24:37.845Z,11.32
2022-08-04T20:27:15.145Z,8.27
2022-08-04T20:29:47.444Z,14.07
2022-08-04T20:32:22.124Z,7.85
2022-08-04T20:34:52.049Z,8.32
2022-08-04T20:37:23.161Z,6.72
2022-08-04T20:39:55.618Z,6.90
2022-08-04T20:42:27.006Z,7.32
2022-08-04T20:44:57.129Z,4.93
2022-08-04T20:47:35.090Z,6.50
2022-08-04T20:50:08.693Z,5.53
2022-08-04T20:52:39.530Z,5.80
2022-08-04T20:55:09.990Z,5.50
2022-08-04T20:57:49.305Z,5.15
2022-08-04T21:00:26.563Z,6.73
2022-08-04T21:03:01.171Z,8.02
2022-08-04T21:05:31.411Z,6.63
2022-08-04T21:08:01.892Z,4.93
2022-08-04T21:10:39.971Z,10.37
2022-08-04T21:13:16.277Z,6.40
2022-08-04T21:15:58.150Z,6.05
2022-08-04T21:18:29.855Z,5.20
2022-08-04T21:20:58.726Z,10.98
2022-08-04T21:23:27.429Z,3.65
2022-08-04T21:26:02.534Z,4.40
2022-08-04T21:28:32.475Z,3.95
2022-08-04T21:31:02.605Z,4.43
2022-08-04T21:33:52.387Z,6.97
2022-08-04T21:36:21.386Z,6.60
2022-08-04T21:38:52.175Z,4.18
2022-08-04T21:41:24.702Z,5.53
2022-08-04T21:43:58.850Z,5.47
2022-08-04T21:46:29.954Z,4.28
2022-08-04T21:49:00.808Z,3.15
2022-08-04T21:51:57.962Z,2.97
2022-08-04T21:54:21.712Z,3.45
2022-08-04T21:56:52.648Z,2.95
2022-08-04T21:59:23.483Z,6.38
2022-08-04T22:01:57.704Z,4.40
2022-08-04T22:04:30.916Z,3.95
2022-08-04T22:07:03.066Z,4.03
2022-08-04T22:09:38.949Z,3.35
2022-08-04T22:12:12.129Z,5.88
2022-08-04T22:14:41.287Z,3.20
2022-08-04T22:17:13.858Z,3.45
2022-08-04T22:19:55.643Z,4.63
2022-08-04T22:22:29.055Z,3.95
2022-08-04T22:25:12.268Z,4.13
2022-08-04T22:28:02.841Z,3.35
2022-08-04T22:30:36.753Z,3.55
2022-08-04T22:33:08.806Z,2.70
2022-08-04T22:35:43.766Z,3.75
2022-08-04T22:38:21.263Z,3.58
2022-08-04T22:40:59.490Z,2.63
2022-08-04T22:43:32.698Z,4.72
2022-08-04T22:46:05.346Z,2.80
2022-08-04T22:48:37.223Z,3.72
2022-08-04T22:51:08.694Z,3.20
2022-08-04T22:53:37.965Z,4.90
2022-08-04T22:56:10.765Z,2.80
2022-08-04T22:58:45.654Z,2.95
2022-08-04T23:01:19.644Z,3.08
2022-08-04T23:03:55.386Z,3.10
2022-08-04T23:06:28.670Z,3.00
2022-08-04T23:08:59.335Z,3.75
2022-08-04T23:11:34.373Z,2.28
2022-08-04T23:14:05.327Z,2.38
2022-08-04T23:16:40.554Z,3.20
2022-08-04T23:19:15.247Z,4.88
2022-08-04T23:21:47.732Z,3.63
2022-08-04T23:24:30.167Z,11.40
2022-08-04T23:26:59.391Z,5.28
2022-08-04T23:29:27.968Z,2.92
2022-08-04T23:32:20.431Z,3.50
2022-08-04T23:34:49.295Z,2.92
2022-08-04T23:37:19.623Z,2.90
2022-08-04T23:40:15.534Z,3.28
2022-08-04T23:42:36.960Z,5.15
2022-08-04T23:45:12.098Z,4.95
2022-08-04T23:48:15.357Z,4.07
2022-08-04T23:50:29.399Z,3.60
2022-08-04T23:52:59.630Z,2.78
2022-08-04T23:55:32.051Z,3.03
2022-08-04T23:58:06.078Z,4.28
